createdAt,value
2018-08-29T00:00:08.475Z,11.17
2018-08-29T00:02:35.894Z,10.60
2018-08-29T00:05:03.272Z,10.00
2018-08-29T00:07:36.424Z,10.50
2018-08-29T00:10:09.488Z,9.87
2018-08-29T00:12:36.884Z,9.50
2018-08-29T00:15:05.088Z,11.83
2018-08-29T00:17:32.441Z,8.83
2018-08-29T00:19:59.767Z,11.33
2018-08-29T00:22:27.111Z,10.10
2018-08-29T00:24:54.469Z,10.33
2018-08-29T00:27:21.981Z,9.63
2018-08-29T00:29:49.377Z,10.07
2018-08-29T00:32:16.692Z,9.37
2018-08-29T00:34:44.028Z,10.03
2018-08-29T00:37:11.348Z,9.40
2018-08-29T00:39:38.712Z,9.43
2018-08-29T00:42:06.136Z,8.80
2018-08-29T00:44:33.489Z,10.60
2018-08-29T00:47:00.867Z,9.37
2018-08-29T00:49:28.209Z,12.03
2018-08-29T00:51:55.547Z,10.13
2018-08-29T00:54:22.953Z,9.17
2018-08-29T00:56:50.300Z,9.70
2018-08-29T00:59:17.661Z,10.70
2018-08-29T01:01:45.008Z,9.50
2018-08-29T01:04:12.922Z,10.70
2018-08-29T01:06:40.335Z,10.03
2018-08-29T01:09:07.688Z,11.53
2018-08-29T01:11:35.529Z,9.90
2018-08-29T01:14:02.896Z,10.07
2018-08-29T01:16:30.272Z,11.17
2018-08-29T01:18:57.612Z,10.10
2018-08-29T01:21:24.992Z,12.40
2018-08-29T01:23:52.353Z,10.93
2018-08-29T01:26:19.744Z,11.43
2018-08-29T01:28:47.139Z,10.80
2018-08-29T01:31:14.480Z,12.63
2018-08-29T01:33:41.812Z,10.80
2018-08-29T01:36:09.199Z,10.53
2018-08-29T01:38:36.528Z,10.40
2018-08-29T01:41:04.040Z,10.57
2018-08-29T01:43:31.386Z,10.20
2018-08-29T01:45:58.729Z,10.10
2018-08-29T01:48:26.148Z,10.37
2018-08-29T01:50:53.504Z,11.93
2018-08-29T01:53:20.868Z,10.00
2018-08-29T01:55:48.355Z,12.73
2018-08-29T01:58:15.725Z,9.97
2018-08-29T02:00:43.108Z,11.23
2018-08-29T02:03:10.445Z,10.70
2018-08-29T02:05:37.883Z,12.23
2018-08-29T02:08:05.394Z,10.17
2018-08-29T02:10:32.787Z,10.37
2018-08-29T02:13:00.365Z,10.50
2018-08-29T02:15:27.783Z,11.10
2018-08-29T02:17:55.196Z,11.17
2018-08-29T02:20:22.623Z,10.97
2018-08-29T02:22:50.108Z,10.43
2018-08-29T02:25:17.537Z,11.13
2018-08-29T02:27:44.963Z,11.10
2018-08-29T02:30:12.396Z,11.20
2018-08-29T02:32:39.790Z,10.77
2018-08-29T02:35:07.328Z,11.67
2018-08-29T02:37:34.826Z,10.87
2018-08-29T02:40:02.346Z,9.60
2018-08-29T02:42:35.612Z,11.20
2018-08-29T02:45:03.092Z,13.80
2018-08-29T02:47:30.504Z,12.57
2018-08-29T02:49:57.919Z,12.07
2018-08-29T02:52:25.364Z,11.63
2018-08-29T02:54:52.801Z,13.00
2018-08-29T02:57:20.300Z,12.60
2018-08-29T02:59:47.744Z,12.10
2018-08-29T03:02:15.168Z,11.13
2018-08-29T03:04:42.561Z,12.00
2018-08-29T03:07:10.012Z,11.87
2018-08-29T03:09:37.412Z,11.00
2018-08-29T03:12:04.874Z,12.40
2018-08-29T03:14:32.800Z,11.40
2018-08-29T03:17:00.252Z,12.30
2018-08-29T03:19:27.665Z,10.87
2018-08-29T03:21:55.078Z,9.50
2018-08-29T03:24:22.495Z,12.37
2018-08-29T03:26:49.993Z,11.60
2018-08-29T03:29:17.648Z,12.33
2018-08-29T03:31:45.075Z,11.33
2018-08-29T03:34:12.495Z,10.90
2018-08-29T03:36:39.956Z,11.17
2018-08-29T03:39:07.964Z,16.03
2018-08-29T03:41:35.508Z,10.40
2018-08-29T03:44:02.939Z,11.43
2018-08-29T03:46:30.340Z,11.57
2018-08-29T03:48:57.825Z,10.20
2018-08-29T03:51:25.265Z,9.87
2018-08-29T03:53:52.724Z,10.73
2018-08-29T03:56:20.291Z,10.33
2018-08-29T03:58:47.814Z,11.63
2018-08-29T04:01:15.220Z,14.90
2018-08-29T04:03:42.676Z,10.40
2018-08-29T04:06:10.112Z,8.97
2018-08-29T04:08:37.540Z,13.73
2018-08-29T04:11:05.041Z,13.63
2018-08-29T04:13:33.088Z,10.10
2018-08-29T04:16:00.502Z,9.70
2018-08-29T04:18:27.949Z,10.73
2018-08-29T04:20:55.348Z,11.37
2018-08-29T04:23:22.785Z,11.47
2018-08-29T04:25:50.278Z,10.60
2018-08-29T04:28:17.740Z,10.60
2018-08-29T04:30:45.187Z,11.53
2018-08-29T04:33:12.636Z,10.43
2018-08-29T04:35:40.093Z,12.37
2018-08-29T04:38:07.540Z,14.20
2018-08-29T04:40:35.013Z,11.60
2018-08-29T04:43:02.444Z,11.37
2018-08-29T04:45:29.892Z,11.03
2018-08-29T04:47:57.317Z,11.97
2018-08-29T04:50:24.720Z,11.73
2018-08-29T04:52:52.233Z,11.40
2018-08-29T04:55:19.707Z,11.40
2018-08-29T04:57:47.737Z,12.10
2018-08-29T05:00:15.156Z,10.67
2018-08-29T05:02:42.620Z,10.47
2018-08-29T05:05:10.089Z,10.93
2018-08-29T05:07:37.524Z,11.60
2018-08-29T05:10:05.435Z,10.37
2018-08-29T05:12:32.867Z,10.78
2018-08-29T05:15:00.450Z,11.60
2018-08-29T05:17:27.884Z,13.13
2018-08-29T05:19:55.333Z,10.50
2018-08-29T05:22:22.780Z,13.80
2018-08-29T05:24:50.348Z,14.20
2018-08-29T05:27:18.332Z,13.53
2018-08-29T05:29:45.764Z,15.17
2018-08-29T05:32:13.173Z,12.67
2018-08-29T05:34:41.136Z,11.57
2018-08-29T05:37:08.545Z,11.37
2018-08-29T05:39:36.062Z,12.10
2018-08-29T05:42:03.473Z,11.07
2018-08-29T05:44:30.890Z,13.20
2018-08-29T05:46:58.340Z,13.70
2018-08-29T05:49:25.740Z,18.10
2018-08-29T05:51:53.464Z,12.37
2018-08-29T05:54:20.962Z,14.53
2018-08-29T05:56:48.423Z,15.13
2018-08-29T05:59:15.840Z,12.10
2018-08-29T06:01:43.369Z,14.73
2018-08-29T06:04:10.749Z,12.90
2018-08-29T06:06:38.177Z,12.70
2018-08-29T06:09:06.120Z,15.87
2018-08-29T06:11:33.534Z,14.13
2018-08-29T06:14:00.952Z,13.20
2018-08-29T06:16:28.348Z,14.83
2018-08-29T06:18:55.765Z,12.97
2018-08-29T06:21:23.215Z,15.43
2018-08-29T06:23:50.692Z,12.20
2018-08-29T06:26:18.130Z,12.80
2018-08-29T06:28:45.591Z,12.70
2018-08-29T06:31:12.995Z,12.07
2018-08-29T06:33:40.493Z,12.30
2018-08-29T06:36:07.912Z,14.83
2018-08-29T06:38:35.384Z,14.90
2018-08-29T06:41:02.859Z,12.27
2018-08-29T06:43:30.282Z,12.53
2018-08-29T06:45:57.689Z,12.60
2018-08-29T06:48:25.108Z,13.13
2018-08-29T06:50:52.556Z,13.93
2018-08-29T06:53:21.096Z,15.10
2018-08-29T06:55:48.530Z,14.70
2018-08-29T06:58:16.799Z,15.17
2018-08-29T07:00:44.241Z,13.83
2018-08-29T07:03:11.664Z,21.07
2018-08-29T07:05:39.100Z,17.03
2018-08-29T07:08:07.572Z,16.83
2018-08-29T07:10:35.040Z,16.90
2018-08-29T07:13:02.554Z,21.63
2018-08-29T07:15:29.980Z,21.80
2018-08-29T07:17:57.435Z,19.43
2018-08-29T07:20:25.862Z,26.50
2018-08-29T07:22:53.446Z,18.97
2018-08-29T07:25:20.604Z,18.40
2018-08-29T07:27:48.036Z,20.10
2018-08-29T07:30:15.556Z,18.83
2018-08-29T07:32:43.060Z,21.60
2018-08-29T07:35:10.525Z,24.50
2018-08-29T07:37:37.984Z,16.43
2018-08-29T07:40:05.556Z,13.17
2018-08-29T07:42:33.703Z,15.10
2018-08-29T07:45:01.312Z,20.00
2018-08-29T07:47:28.759Z,16.47
2018-08-29T07:49:56.189Z,16.67
2018-08-29T07:52:23.613Z,12.03
2018-08-29T07:54:51.089Z,17.33
2018-08-29T07:57:18.616Z,15.77
2018-08-29T07:59:46.052Z,15.67
2018-08-29T08:02:13.476Z,10.23
2018-08-29T08:04:40.968Z,12.43
2018-08-29T08:07:08.406Z,11.53
2018-08-29T08:09:41.838Z,8.43
2018-08-29T08:12:09.212Z,10.43
2018-08-29T08:14:36.653Z,9.20
2018-08-29T08:17:03.921Z,8.93
2018-08-29T08:19:31.356Z,8.83
2018-08-29T08:21:58.964Z,12.60
2018-08-29T08:24:26.398Z,10.53
2018-08-29T08:26:53.797Z,15.23
2018-08-29T08:29:22.312Z,13.77
2018-08-29T08:31:49.696Z,9.23
2018-08-29T08:34:17.154Z,16.53
2018-08-29T08:36:44.579Z,12.47
2018-08-29T08:39:12.004Z,14.10
2018-08-29T08:41:39.433Z,12.63
2018-08-29T08:44:07.044Z,13.73
2018-08-29T08:46:35.164Z,10.43
2018-08-29T08:49:02.873Z,10.00
2018-08-29T08:51:30.036Z,10.90
2018-08-29T08:53:57.529Z,8.17
2018-08-29T08:56:26.941Z,9.87
2018-08-29T08:58:54.167Z,10.53
2018-08-29T09:01:21.925Z,8.13
2018-08-29T09:03:49.192Z,10.73
2018-08-29T09:06:16.685Z,6.87
2018-08-29T09:08:44.100Z,8.33
2018-08-29T09:11:11.536Z,8.10
2018-08-29T09:13:40.689Z,11.23
2018-08-29T09:16:08.151Z,6.93
2018-08-29T09:18:35.380Z,9.23
2018-08-29T09:21:02.640Z,12.07
2018-08-29T09:23:29.868Z,9.00
2018-08-29T09:25:58.034Z,8.33
2018-08-29T09:28:25.281Z,8.97
2018-08-29T09:30:54.293Z,9.70
2018-08-29T09:33:21.867Z,10.40
2018-08-29T09:35:49.175Z,7.53
2018-08-29T09:38:16.530Z,9.43
2018-08-29T09:40:43.764Z,9.57
2018-08-29T09:43:11.032Z,9.70
2018-08-29T09:45:41.777Z,8.33
2018-08-29T09:48:09.026Z,9.70
2018-08-29T09:50:36.476Z,12.03
2018-08-29T09:53:04.018Z,11.80
2018-08-29T09:55:31.852Z,7.93
2018-08-29T09:58:00.209Z,10.63
2018-08-29T10:00:35.609Z,9.60
2018-08-29T10:03:08.324Z,10.33
2018-08-29T10:05:35.784Z,9.70
2018-08-29T10:08:03.905Z,10.27
2018-08-29T10:10:35.201Z,10.40
2018-08-29T10:13:02.469Z,12.80
2018-08-29T10:15:29.743Z,7.57
2018-08-29T10:17:57.100Z,9.10
2018-08-29T10:20:24.349Z,9.33
2018-08-29T10:22:51.944Z,10.73
2018-08-29T10:25:20.669Z,10.67
2018-08-29T10:27:48.492Z,9.47
2018-08-29T10:30:16.084Z,9.40
2018-08-29T10:32:43.311Z,8.53
2018-08-29T10:35:10.585Z,12.40
2018-08-29T10:37:40.135Z,9.67
2018-08-29T10:40:08.524Z,11.20
2018-08-29T10:42:35.840Z,8.87
2018-08-29T10:45:03.198Z,12.27
2018-08-29T10:47:30.492Z,13.37
2018-08-29T10:49:57.752Z,8.70
2018-08-29T10:52:27.582Z,9.67
2018-08-29T10:54:56.957Z,10.97
2018-08-29T10:57:24.445Z,11.57
2018-08-29T10:59:51.816Z,8.13
2018-08-29T11:02:19.272Z,9.67
2018-08-29T11:04:46.722Z,11.10
2018-08-29T11:07:13.929Z,11.30
2018-08-29T11:09:41.220Z,9.80
2018-08-29T11:12:08.460Z,13.00
2018-08-29T11:14:35.789Z,9.57
2018-08-29T11:17:03.100Z,8.00
2018-08-29T11:19:30.353Z,11.93
2018-08-29T11:21:57.612Z,11.43
2018-08-29T11:24:24.863Z,10.83
2018-08-29T11:26:52.113Z,9.93
2018-08-29T11:29:19.403Z,9.67
2018-08-29T11:31:46.620Z,9.60
2018-08-29T11:34:13.845Z,8.27
2018-08-29T11:36:41.097Z,9.17
2018-08-29T11:39:08.608Z,7.37
2018-08-29T11:41:35.877Z,10.87
2018-08-29T11:44:03.136Z,7.60
2018-08-29T11:46:30.349Z,9.67
2018-08-29T11:48:57.570Z,9.03
2018-08-29T11:51:24.789Z,9.57
2018-08-29T11:53:52.072Z,8.57
2018-08-29T11:56:19.391Z,10.33
2018-08-29T11:58:46.784Z,11.30
2018-08-29T12:01:14.042Z,9.70
2018-08-29T12:03:41.300Z,10.60
2018-08-29T12:06:08.519Z,12.33
2018-08-29T12:08:35.833Z,11.67
2018-08-29T12:11:03.043Z,15.47
2018-08-29T12:13:30.278Z,11.73
2018-08-29T12:15:57.484Z,11.03
2018-08-29T12:18:24.712Z,12.60
2018-08-29T12:20:51.963Z,9.90
2018-08-29T12:23:19.296Z,11.00
2018-08-29T12:25:46.533Z,10.07
2018-08-29T12:28:14.325Z,9.80
2018-08-29T12:30:41.881Z,11.17
2018-08-29T12:33:09.140Z,11.10
2018-08-29T12:35:36.652Z,13.20
2018-08-29T12:38:04.316Z,16.03
2018-08-29T12:40:31.724Z,12.80
2018-08-29T12:42:59.161Z,11.23
2018-08-29T12:45:26.613Z,9.17
2018-08-29T12:47:54.044Z,9.83
2018-08-29T12:50:21.672Z,9.67
2018-08-29T12:52:49.092Z,11.47
2018-08-29T12:55:16.546Z,9.13
2018-08-29T12:57:44.021Z,10.00
2018-08-29T13:00:11.481Z,9.43
2018-08-29T13:02:38.952Z,9.20
2018-08-29T13:05:06.802Z,14.20
2018-08-29T13:07:34.246Z,10.53
2018-08-29T13:10:01.718Z,12.47
2018-08-29T13:12:29.176Z,13.00
2018-08-29T13:14:56.666Z,12.10
2018-08-29T13:17:24.119Z,11.53
2018-08-29T13:19:51.592Z,11.20
2018-08-29T13:22:19.100Z,17.53
2018-08-29T13:24:46.545Z,11.10
2018-08-29T13:27:13.980Z,12.30
2018-08-29T13:29:41.429Z,12.23
2018-08-29T13:32:08.867Z,12.10
2018-08-29T13:34:36.340Z,13.50
2018-08-29T13:37:03.831Z,12.13
2018-08-29T13:39:31.270Z,12.77
2018-08-29T13:41:58.704Z,11.73
2018-08-29T13:44:26.131Z,12.17
2018-08-29T13:46:53.584Z,13.97
2018-08-29T13:49:21.060Z,13.20
2018-08-29T13:51:48.607Z,13.07
2018-08-29T13:54:16.128Z,12.93
2018-08-29T13:56:43.539Z,12.43
2018-08-29T13:59:11.011Z,15.70
2018-08-29T14:01:38.460Z,13.20
2018-08-29T14:04:06.012Z,13.13
2018-08-29T14:06:33.497Z,11.10
2018-08-29T14:09:00.979Z,12.27
2018-08-29T14:11:28.445Z,11.87
2018-08-29T14:13:55.885Z,11.90
2018-08-29T14:16:23.668Z,12.37
2018-08-29T14:18:51.235Z,12.63
2018-08-29T14:21:18.692Z,14.67
2018-08-29T14:23:46.127Z,10.83
2018-08-29T14:26:13.572Z,14.03
2018-08-29T14:28:41.114Z,10.90
2018-08-29T14:31:08.512Z,12.90
2018-08-29T14:33:36.061Z,11.67
2018-08-29T14:36:03.439Z,11.50
2018-08-29T14:38:30.901Z,13.73
2018-08-29T14:40:58.568Z,12.23
2018-08-29T14:43:26.106Z,12.60
2018-08-29T14:45:53.648Z,10.90
2018-08-29T14:48:21.141Z,13.73
2018-08-29T14:50:48.648Z,12.30
2018-08-29T14:53:16.193Z,11.27
2018-08-29T14:55:43.626Z,10.00
2018-08-29T14:58:11.100Z,10.40
2018-08-29T15:01:00.248Z,11.10
2018-08-29T15:04:39.282Z,14.50
2018-08-29T15:07:07.327Z,10.97
2018-08-29T15:09:35.400Z,11.80
2018-08-29T15:12:02.756Z,16.80
2018-08-29T15:14:32.069Z,11.63
2018-08-29T15:16:59.358Z,13.70
2018-08-29T15:19:26.592Z,15.50
2018-08-29T15:21:54.293Z,18.90
2018-08-29T15:24:21.467Z,16.30
2018-08-29T15:26:49.533Z,14.87
2018-08-29T15:29:16.986Z,14.47
2018-08-29T15:31:44.321Z,15.73
2018-08-29T15:34:11.793Z,15.23
2018-08-29T15:36:39.865Z,15.87
2018-08-29T15:39:13.939Z,12.90
2018-08-29T15:41:43.775Z,18.20
2018-08-29T15:44:11.220Z,18.13
2018-08-29T15:46:39.837Z,14.83
2018-08-29T15:49:07.310Z,14.90
2018-08-29T15:51:34.516Z,14.67
2018-08-29T15:54:01.947Z,17.27
2018-08-29T15:56:29.794Z,14.10
2018-08-29T15:58:57.208Z,18.53
2018-08-29T16:01:24.464Z,19.67
2018-08-29T16:03:51.705Z,15.80
2018-08-29T16:06:18.951Z,15.30
2018-08-29T16:08:46.205Z,16.20
2018-08-29T16:11:13.481Z,17.07
2018-08-29T16:13:40.739Z,16.07
2018-08-29T16:16:08.212Z,15.20
2018-08-29T16:18:35.452Z,17.10
2018-08-29T16:21:02.773Z,15.00
2018-08-29T16:23:30.288Z,16.70
2018-08-29T16:25:57.712Z,15.03
2018-08-29T16:28:25.158Z,15.80
2018-08-29T16:30:52.595Z,17.77
2018-08-29T16:33:20.175Z,18.10
2018-08-29T16:35:47.633Z,16.47
2018-08-29T16:38:15.241Z,15.87
2018-08-29T16:40:42.568Z,20.67
2018-08-29T16:43:10.008Z,19.40
2018-08-29T16:45:37.549Z,21.23
2018-08-29T16:48:04.988Z,18.13
2018-08-29T16:50:32.388Z,18.03
2018-08-29T16:52:59.972Z,22.63
2018-08-29T16:55:27.457Z,16.33
2018-08-29T16:57:54.911Z,17.77
2018-08-29T17:00:22.368Z,19.77
2018-08-29T17:02:49.820Z,15.03
2018-08-29T17:05:17.288Z,17.27
2018-08-29T17:07:47.888Z,18.80
2018-08-29T17:10:15.325Z,19.40
2018-08-29T17:12:42.776Z,21.70
2018-08-29T17:15:10.345Z,19.10
2018-08-29T17:17:37.950Z,17.10
2018-08-29T17:20:09.176Z,18.00
2018-08-29T17:22:36.608Z,16.67
2018-08-29T17:25:04.561Z,24.73
2018-08-29T17:27:32.028Z,18.67
2018-08-29T17:30:00.552Z,20.10
2018-08-29T17:32:28.049Z,18.90
2018-08-29T17:34:55.539Z,19.97
2018-08-29T17:37:22.988Z,17.80
2018-08-29T17:39:50.498Z,17.10
2018-08-29T17:42:17.953Z,19.50
2018-08-29T17:44:45.572Z,19.80
2018-08-29T17:47:13.062Z,15.47
2018-08-29T17:49:40.484Z,14.77
2018-08-29T17:52:08.008Z,17.17
2018-08-29T17:54:35.476Z,20.40
2018-08-29T17:57:02.960Z,17.97
2018-08-29T17:59:30.520Z,20.87
2018-08-29T18:01:57.993Z,19.10
2018-08-29T18:04:25.586Z,19.97
2018-08-29T18:06:52.972Z,16.87
2018-08-29T18:09:20.432Z,18.70
2018-08-29T18:11:47.994Z,20.10
2018-08-29T18:14:15.440Z,20.30
2018-08-29T18:16:42.940Z,22.90
2018-08-29T18:19:10.396Z,19.17
2018-08-29T18:21:37.852Z,21.37
2018-08-29T18:24:05.614Z,24.60
2018-08-29T18:26:32.944Z,17.67
2018-08-29T18:29:00.426Z,19.93
2018-08-29T18:31:27.861Z,20.63
2018-08-29T18:33:55.278Z,19.87
2018-08-29T18:36:22.668Z,20.23
2018-08-29T18:38:50.147Z,23.33
2018-08-29T18:41:17.610Z,20.10
2018-08-29T18:43:45.124Z,19.90
2018-08-29T18:46:12.536Z,21.90
2018-08-29T18:48:39.956Z,21.67
2018-08-29T18:51:07.397Z,21.73
2018-08-29T18:53:34.832Z,24.33
2018-08-29T18:56:02.411Z,22.40
2018-08-29T18:58:29.870Z,25.30
2018-08-29T19:00:57.388Z,26.40
2018-08-29T19:03:24.848Z,24.60
2018-08-29T19:05:52.286Z,22.00
2018-08-29T19:08:19.696Z,22.70
2018-08-29T19:10:47.129Z,20.90
2018-08-29T19:13:14.615Z,22.17
2018-08-29T19:15:42.045Z,19.23
2018-08-29T19:18:09.491Z,22.73
2018-08-29T19:20:36.912Z,22.07
2018-08-29T19:23:04.396Z,22.10
2018-08-29T19:25:31.852Z,21.03
2018-08-29T19:27:59.791Z,24.20
2018-08-29T19:30:27.292Z,20.47
2018-08-29T19:32:54.728Z,26.83
2018-08-29T19:35:22.210Z,22.90
2018-08-29T19:37:49.712Z,22.93
2018-08-29T19:40:17.928Z,21.87
2018-08-29T19:42:45.391Z,26.87
2018-08-29T19:45:12.784Z,22.70
2018-08-29T19:47:40.304Z,23.37
2018-08-29T19:50:07.794Z,25.50
2018-08-29T19:52:35.219Z,27.13
2018-08-29T19:55:02.837Z,30.83
2018-08-29T19:57:30.333Z,26.70
2018-08-29T19:59:57.873Z,27.43
2018-08-29T20:02:25.340Z,29.40
2018-08-29T20:04:52.821Z,28.53
2018-08-29T20:07:20.232Z,29.80
2018-08-29T20:09:47.656Z,28.07
2018-08-29T20:12:15.096Z,30.20
2018-08-29T20:14:42.662Z,28.40
2018-08-29T20:17:10.056Z,28.60
2018-08-29T20:19:37.532Z,32.83
2018-08-29T20:22:05.002Z,34.27
2018-08-29T20:24:32.437Z,31.23
2018-08-29T20:26:59.864Z,30.60
2018-08-29T20:29:27.245Z,34.43
2018-08-29T20:31:54.689Z,34.40
2018-08-29T20:34:22.112Z,35.07
2018-08-29T20:36:49.540Z,34.10
2018-08-29T20:39:16.973Z,32.40
2018-08-29T20:41:44.380Z,39.70
2018-08-29T20:44:11.822Z,37.73
2018-08-29T20:46:39.305Z,42.40
2018-08-29T20:49:06.773Z,37.40
2018-08-29T20:51:34.196Z,35.93
2018-08-29T20:54:01.700Z,37.33
2018-08-29T20:56:29.210Z,36.87
2018-08-29T20:58:56.647Z,39.03
2018-08-29T21:01:24.315Z,41.90
2018-08-29T21:03:51.618Z,42.27
2018-08-29T21:06:19.061Z,41.27
2018-08-29T21:08:46.561Z,47.17
2018-08-29T21:11:14.029Z,41.90
2018-08-29T21:13:41.511Z,38.77
2018-08-29T21:16:08.941Z,46.97
2018-08-29T21:18:36.399Z,38.73
2018-08-29T21:21:03.829Z,46.73
2018-08-29T21:23:31.264Z,46.20
2018-08-29T21:25:58.698Z,47.80
2018-08-29T21:28:55.512Z,47.83
2018-08-29T21:31:41.565Z,46.00
2018-08-29T21:35:21.595Z,45.00
2018-08-29T21:38:01.180Z,41.77
2018-08-29T21:40:28.612Z,48.60
2018-08-29T21:43:07.633Z,48.07
2018-08-29T21:45:46.637Z,46.70
2018-08-29T21:48:29.250Z,47.50
2018-08-29T21:52:16.301Z,47.20
2018-08-29T21:54:55.140Z,49.97
2018-08-29T22:00:39.546Z,50.13
2018-08-29T22:04:22.316Z,48.73
2018-08-29T22:06:49.738Z,50.43
2018-08-29T22:09:17.169Z,49.20
2018-08-29T22:11:44.684Z,51.90
2018-08-29T22:14:12.127Z,49.73
2018-08-29T22:16:39.580Z,49.30
2018-08-29T22:19:07.033Z,47.80
2018-08-29T22:21:34.971Z,43.30
2018-08-29T22:24:02.453Z,46.67
2018-08-29T22:26:29.929Z,45.63
2018-08-29T22:28:57.427Z,47.40
2018-08-29T22:31:24.844Z,43.30
2018-08-29T22:33:52.305Z,43.20
2018-08-29T22:36:19.738Z,49.47
2018-08-29T22:38:47.215Z,48.63
2018-08-29T22:41:15.389Z,48.97
2018-08-29T22:43:42.822Z,48.33
2018-08-29T22:46:10.465Z,46.03
2018-08-29T22:48:37.923Z,49.17
2018-08-29T22:51:05.408Z,52.03
2018-08-29T22:53:32.861Z,52.33
2018-08-29T22:56:00.345Z,57.93
2018-08-29T22:58:27.837Z,56.43
2018-08-29T23:00:55.246Z,56.57
2018-08-29T23:03:22.680Z,58.47
2018-08-29T23:05:50.115Z,61.97
2018-08-29T23:08:17.595Z,46.90
2018-08-29T23:10:45.160Z,44.50
2018-08-29T23:13:12.583Z,38.27
2018-08-29T23:15:40.049Z,37.00
2018-08-29T23:18:07.532Z,36.63
2018-08-29T23:20:35.017Z,34.07
2018-08-29T23:23:02.544Z,32.00
2018-08-29T23:25:30.091Z,34.83
2018-08-29T23:27:57.600Z,34.50
2018-08-29T23:30:25.014Z,31.90
2018-08-29T23:32:52.452Z,30.63
2018-08-29T23:35:19.928Z,26.47
2018-08-29T23:37:47.381Z,31.33
2018-08-29T23:40:14.838Z,25.60
2018-08-29T23:42:42.273Z,26.07
2018-08-29T23:45:09.719Z,23.13
2018-08-29T23:47:37.153Z,25.00
2018-08-29T23:50:04.840Z,26.63
2018-08-29T23:52:32.281Z,30.57
2018-08-29T23:54:59.753Z,27.10
2018-08-29T23:57:27.300Z,28.07
2018-08-29T23:59:54.743Z,30.00
